sensor_id;sensor_type;location;lat;lon;timestamp;P1;durP1;ratioP1;P2;durP2;ratioP2
59263;SDS011;45030;42.720;23.344;2023-05-07T00:00:18;14.23;;;8.25;;
59263;SDS011;45030;42.720;23.344;2023-05-07T00:02:44;15.05;;;8.43;;
59263;SDS011;45030;42.720;23.344;2023-05-07T00:05:09;13.93;;;8.13;;
59263;SDS011;45030;42.720;23.344;2023-05-07T00:07:34;12.73;;;8.80;;
59263;SDS011;45030;42.720;23.344;2023-05-07T00:10:00;14.27;;;8.65;;
59263;SDS011;45030;42.720;23.344;2023-05-07T00:12:25;14.57;;;9.20;;
59263;SDS011;45030;42.720;23.344;2023-05-07T00:14:50;14.63;;;9.32;;
59263;SDS011;45030;42.720;23.344;2023-05-07T00:17:15;13.13;;;8.63;;
59263;SDS011;45030;42.720;23.344;2023-05-07T00:19:41;14.70;;;9.40;;
59263;SDS011;45030;42.720;23.344;2023-05-07T00:22:06;17.20;;;9.52;;
59263;SDS011;45030;42.720;23.344;2023-05-07T00:24:32;16.52;;;10.00;;
59263;SDS011;45030;42.720;23.344;2023-05-07T00:26:57;13.68;;;10.13;;
59263;SDS011;45030;42.720;23.344;2023-05-07T00:29:23;15.23;;;10.98;;
59263;SDS011;45030;42.720;23.344;2023-05-07T00:31:48;17.23;;;10.52;;
59263;SDS011;45030;42.720;23.344;2023-05-07T00:34:14;18.27;;;11.68;;
59263;SDS011;45030;42.720;23.344;2023-05-07T00:36:39;14.20;;;8.82;;
59263;SDS011;45030;42.720;23.344;2023-05-07T00:39:04;20.27;;;8.63;;
59263;SDS011;45030;42.720;23.344;2023-05-07T00:41:29;13.63;;;8.68;;
59263;SDS011;45030;42.720;23.344;2023-05-07T00:43:58;13.63;;;9.85;;
59263;SDS011;45030;42.720;23.344;2023-05-07T00:46:23;11.68;;;8.32;;
59263;SDS011;45030;42.720;23.344;2023-05-07T00:48:49;23.45;;;13.32;;
59263;SDS011;45030;42.720;23.344;2023-05-07T00:51:15;17.88;;;10.70;;
59263;SDS011;45030;42.720;23.344;2023-05-07T00:53:40;17.98;;;9.95;;
59263;SDS011;45030;42.720;23.344;2023-05-07T00:56:05;13.60;;;8.55;;
59263;SDS011;45030;42.720;23.344;2023-05-07T00:58:31;19.25;;;9.93;;
59263;SDS011;45030;42.720;23.344;2023-05-07T01:00:56;18.92;;;10.48;;
59263;SDS011;45030;42.720;23.344;2023-05-07T01:03:22;16.40;;;9.38;;
59263;SDS011;45030;42.720;23.344;2023-05-07T01:05:47;16.63;;;11.05;;
59263;SDS011;45030;42.720;23.344;2023-05-07T01:08:13;22.90;;;11.15;;
59263;SDS011;45030;42.720;23.344;2023-05-07T01:10:39;17.70;;;10.68;;
59263;SDS011;45030;42.720;23.344;2023-05-07T01:13:07;16.02;;;9.88;;
59263;SDS011;45030;42.720;23.344;2023-05-07T01:15:33;13.48;;;8.63;;
59263;SDS011;45030;42.720;23.344;2023-05-07T01:17:58;19.25;;;10.93;;
59263;SDS011;45030;42.720;23.344;2023-05-07T01:20:24;18.13;;;9.10;;
59263;SDS011;45030;42.720;23.344;2023-05-07T01:22:50;14.35;;;8.35;;
59263;SDS011;45030;42.720;23.344;2023-05-07T01:25:15;13.55;;;6.55;;
59263;SDS011;45030;42.720;23.344;2023-05-07T01:27:41;11.65;;;6.97;;
59263;SDS011;45030;42.720;23.344;2023-05-07T01:30:06;13.80;;;7.65;;
59263;SDS011;45030;42.720;23.344;2023-05-07T01:32:43;10.32;;;6.45;;
59263;SDS011;45030;42.720;23.344;2023-05-07T01:35:09;13.25;;;6.55;;
59263;SDS011;45030;42.720;23.344;2023-05-07T01:37:35;10.45;;;7.15;;
59263;SDS011;45030;42.720;23.344;2023-05-07T01:40:01;11.52;;;7.13;;
59263;SDS011;45030;42.720;23.344;2023-05-07T01:42:26;12.75;;;7.35;;
59263;SDS011;45030;42.720;23.344;2023-05-07T01:44:52;11.95;;;8.13;;
59263;SDS011;45030;42.720;23.344;2023-05-07T01:47:18;11.90;;;7.50;;
59263;SDS011;45030;42.720;23.344;2023-05-07T01:49:43;15.63;;;9.27;;
59263;SDS011;45030;42.720;23.344;2023-05-07T01:52:10;11.77;;;8.95;;
59263;SDS011;45030;42.720;23.344;2023-05-07T01:54:35;11.75;;;8.05;;
59263;SDS011;45030;42.720;23.344;2023-05-07T01:57:00;10.60;;;6.55;;
59263;SDS011;45030;42.720;23.344;2023-05-07T01:59:26;9.85;;;6.03;;
59263;SDS011;45030;42.720;23.344;2023-05-07T02:01:51;13.75;;;7.63;;
59263;SDS011;45030;42.720;23.344;2023-05-07T02:04:17;8.93;;;6.38;;
59263;SDS011;45030;42.720;23.344;2023-05-07T02:06:42;7.93;;;5.82;;
59263;SDS011;45030;42.720;23.344;2023-05-07T02:09:07;8.52;;;6.18;;
59263;SDS011;45030;42.720;23.344;2023-05-07T02:11:33;8.43;;;5.93;;
59263;SDS011;45030;42.720;23.344;2023-05-07T02:13:59;11.35;;;7.00;;
59263;SDS011;45030;42.720;23.344;2023-05-07T02:16:24;10.30;;;7.32;;
59263;SDS011;45030;42.720;23.344;2023-05-07T02:18:49;10.18;;;6.90;;
59263;SDS011;45030;42.720;23.344;2023-05-07T02:21:15;10.95;;;7.60;;
59263;SDS011;45030;42.720;23.344;2023-05-07T02:23:40;10.85;;;7.68;;
59263;SDS011;45030;42.720;23.344;2023-05-07T02:26:05;11.60;;;7.95;;
59263;SDS011;45030;42.720;23.344;2023-05-07T02:28:30;11.65;;;8.65;;
59263;SDS011;45030;42.720;23.344;2023-05-07T02:30:56;13.05;;;7.82;;
59263;SDS011;45030;42.720;23.344;2023-05-07T02:33:23;12.15;;;8.25;;
59263;SDS011;45030;42.720;23.344;2023-05-07T02:35:48;17.33;;;9.15;;
59263;SDS011;45030;42.720;23.344;2023-05-07T02:38:13;13.18;;;9.30;;
59263;SDS011;45030;42.720;23.344;2023-05-07T02:40:39;14.07;;;8.65;;
59263;SDS011;45030;42.720;23.344;2023-05-07T02:43:04;10.82;;;8.20;;
59263;SDS011;45030;42.720;23.344;2023-05-07T02:45:30;10.88;;;7.88;;
59263;SDS011;45030;42.720;23.344;2023-05-07T02:47:56;12.60;;;8.43;;
59263;SDS011;45030;42.720;23.344;2023-05-07T02:50:21;13.63;;;8.77;;
59263;SDS011;45030;42.720;23.344;2023-05-07T02:52:46;9.75;;;6.20;;
59263;SDS011;45030;42.720;23.344;2023-05-07T02:55:12;9.55;;;6.53;;
59263;SDS011;45030;42.720;23.344;2023-05-07T02:57:37;13.95;;;7.75;;
59263;SDS011;45030;42.720;23.344;2023-05-07T03:00:13;9.70;;;5.85;;
59263;SDS011;45030;42.720;23.344;2023-05-07T03:02:38;10.32;;;6.78;;
59263;SDS011;45030;42.720;23.344;2023-05-07T03:05:04;10.68;;;7.07;;
59263;SDS011;45030;42.720;23.344;2023-05-07T03:07:29;10.30;;;7.13;;
59263;SDS011;45030;42.720;23.344;2023-05-07T03:09:54;10.57;;;6.93;;
59263;SDS011;45030;42.720;23.344;2023-05-07T03:12:19;10.88;;;7.07;;
59263;SDS011;45030;42.720;23.344;2023-05-07T03:14:45;14.43;;;6.88;;
59263;SDS011;45030;42.720;23.344;2023-05-07T03:17:10;10.18;;;6.57;;
59263;SDS011;45030;42.720;23.344;2023-05-07T03:19:35;11.05;;;7.32;;
59263;SDS011;45030;42.720;23.344;2023-05-07T03:22:01;10.48;;;7.60;;
59263;SDS011;45030;42.720;23.344;2023-05-07T03:24:26;12.75;;;7.20;;
59263;SDS011;45030;42.720;23.344;2023-05-07T03:26:51;11.65;;;7.65;;
59263;SDS011;45030;42.720;23.344;2023-05-07T03:29:16;11.55;;;6.70;;
59263;SDS011;45030;42.720;23.344;2023-05-07T03:31:41;11.18;;;6.72;;
59263;SDS011;45030;42.720;23.344;2023-05-07T03:34:07;13.13;;;7.13;;
59263;SDS011;45030;42.720;23.344;2023-05-07T03:36:32;22.88;;;10.65;;
59263;SDS011;45030;42.720;23.344;2023-05-07T03:38:57;16.70;;;9.02;;
59263;SDS011;45030;42.720;23.344;2023-05-07T03:41:22;15.55;;;8.52;;
59263;SDS011;45030;42.720;23.344;2023-05-07T03:43:48;12.60;;;7.40;;
59263;SDS011;45030;42.720;23.344;2023-05-07T03:46:13;17.58;;;8.98;;
59263;SDS011;45030;42.720;23.344;2023-05-07T03:48:38;13.20;;;8.27;;
59263;SDS011;45030;42.720;23.344;2023-05-07T03:51:03;14.43;;;8.57;;
59263;SDS011;45030;42.720;23.344;2023-05-07T03:53:29;12.35;;;7.60;;
59263;SDS011;45030;42.720;23.344;2023-05-07T03:55:54;14.45;;;7.75;;
59263;SDS011;45030;42.720;23.344;2023-05-07T03:58:19;10.00;;;6.90;;
59263;SDS011;45030;42.720;23.344;2023-05-07T04:00:45;15.30;;;8.38;;
59263;SDS011;45030;42.720;23.344;2023-05-07T04:03:10;12.57;;;7.18;;
59263;SDS011;45030;42.720;23.344;2023-05-07T04:05:35;15.25;;;8.45;;
59263;SDS011;45030;42.720;23.344;2023-05-07T04:08:01;17.75;;;7.90;;
59263;SDS011;45030;42.720;23.344;2023-05-07T04:10:27;9.15;;;6.38;;
59263;SDS011;45030;42.720;23.344;2023-05-07T04:12:53;13.55;;;7.43;;
59263;SDS011;45030;42.720;23.344;2023-05-07T04:15:18;13.20;;;8.05;;
59263;SDS011;45030;42.720;23.344;2023-05-07T04:17:43;11.68;;;7.70;;
59263;SDS011;45030;42.720;23.344;2023-05-07T04:20:09;12.75;;;7.90;;
59263;SDS011;45030;42.720;23.344;2023-05-07T04:22:35;14.40;;;8.38;;
59263;SDS011;45030;42.720;23.344;2023-05-07T04:25:00;15.82;;;8.90;;
59263;SDS011;45030;42.720;23.344;2023-05-07T04:27:26;16.88;;;7.97;;
59263;SDS011;45030;42.720;23.344;2023-05-07T04:29:51;13.60;;;7.55;;
59263;SDS011;45030;42.720;23.344;2023-05-07T04:32:16;12.77;;;7.55;;
59263;SDS011;45030;42.720;23.344;2023-05-07T04:34:42;12.20;;;7.88;;
59263;SDS011;45030;42.720;23.344;2023-05-07T04:37:07;12.25;;;7.57;;
59263;SDS011;45030;42.720;23.344;2023-05-07T04:39:33;11.32;;;7.50;;
59263;SDS011;45030;42.720;23.344;2023-05-07T04:42:00;13.73;;;9.15;;
59263;SDS011;45030;42.720;23.344;2023-05-07T04:44:25;10.88;;;6.32;;
59263;SDS011;45030;42.720;23.344;2023-05-07T04:46:51;10.20;;;6.50;;
59263;SDS011;45030;42.720;23.344;2023-05-07T04:49:16;8.80;;;6.18;;
59263;SDS011;45030;42.720;23.344;2023-05-07T04:51:41;12.05;;;7.25;;
59263;SDS011;45030;42.720;23.344;2023-05-07T04:54:08;9.98;;;6.97;;
59263;SDS011;45030;42.720;23.344;2023-05-07T04:56:33;11.98;;;7.10;;
59263;SDS011;45030;42.720;23.344;2023-05-07T04:58:58;8.48;;;6.07;;
59263;SDS011;45030;42.720;23.344;2023-05-07T05:01:23;12.15;;;6.53;;
59263;SDS011;45030;42.720;23.344;2023-05-07T05:03:49;13.05;;;7.72;;
59263;SDS011;45030;42.720;23.344;2023-05-07T05:06:14;11.70;;;6.75;;
59263;SDS011;45030;42.720;23.344;2023-05-07T05:08:39;9.20;;;5.72;;
59263;SDS011;45030;42.720;23.344;2023-05-07T05:11:04;13.15;;;6.82;;
59263;SDS011;45030;42.720;23.344;2023-05-07T05:13:30;11.57;;;6.25;;
59263;SDS011;45030;42.720;23.344;2023-05-07T05:15:55;9.75;;;5.88;;
59263;SDS011;45030;42.720;23.344;2023-05-07T05:18:20;11.40;;;6.20;;
59263;SDS011;45030;42.720;23.344;2023-05-07T05:20:46;9.77;;;5.93;;
59263;SDS011;45030;42.720;23.344;2023-05-07T05:23:11;9.93;;;6.35;;
59263;SDS011;45030;42.720;23.344;2023-05-07T05:25:36;10.80;;;6.57;;
59263;SDS011;45030;42.720;23.344;2023-05-07T05:28:04;9.70;;;5.40;;
59263;SDS011;45030;42.720;23.344;2023-05-07T05:30:29;10.13;;;6.45;;
59263;SDS011;45030;42.720;23.344;2023-05-07T05:32:55;10.18;;;6.30;;
59263;SDS011;45030;42.720;23.344;2023-05-07T05:35:21;9.02;;;6.03;;
59263;SDS011;45030;42.720;23.344;2023-05-07T05:37:46;10.20;;;5.97;;
59263;SDS011;45030;42.720;23.344;2023-05-07T05:40:11;9.30;;;5.75;;
59263;SDS011;45030;42.720;23.344;2023-05-07T05:42:37;10.85;;;5.85;;
59263;SDS011;45030;42.720;23.344;2023-05-07T05:45:02;10.55;;;6.40;;
59263;SDS011;45030;42.720;23.344;2023-05-07T05:47:27;9.35;;;6.25;;
59263;SDS011;45030;42.720;23.344;2023-05-07T05:49:53;9.55;;;5.93;;
59263;SDS011;45030;42.720;23.344;2023-05-07T05:52:18;11.20;;;6.30;;
59263;SDS011;45030;42.720;23.344;2023-05-07T05:54:43;10.45;;;6.30;;
59263;SDS011;45030;42.720;23.344;2023-05-07T05:57:08;9.32;;;5.95;;
59263;SDS011;45030;42.720;23.344;2023-05-07T05:59:34;12.43;;;6.03;;
59263;SDS011;45030;42.720;23.344;2023-05-07T06:01:59;9.73;;;5.70;;
59263;SDS011;45030;42.720;23.344;2023-05-07T06:04:25;13.32;;;8.68;;
59263;SDS011;45030;42.720;23.344;2023-05-07T06:06:50;9.32;;;6.63;;
59263;SDS011;45030;42.720;23.344;2023-05-07T06:09:15;9.38;;;6.40;;
59263;SDS011;45030;42.720;23.344;2023-05-07T06:11:41;8.52;;;6.00;;
59263;SDS011;45030;42.720;23.344;2023-05-07T06:14:06;9.25;;;6.30;;
59263;SDS011;45030;42.720;23.344;2023-05-07T06:16:31;7.82;;;6.05;;
59263;SDS011;45030;42.720;23.344;2023-05-07T06:18:56;9.80;;;6.57;;
59263;SDS011;45030;42.720;23.344;2023-05-07T06:21:22;11.55;;;6.60;;
59263;SDS011;45030;42.720;23.344;2023-05-07T06:23:47;12.63;;;6.80;;
59263;SDS011;45030;42.720;23.344;2023-05-07T06:26:12;9.43;;;5.50;;
59263;SDS011;45030;42.720;23.344;2023-05-07T06:28:37;7.95;;;5.50;;
59263;SDS011;45030;42.720;23.344;2023-05-07T06:31:15;7.60;;;5.47;;
59263;SDS011;45030;42.720;23.344;2023-05-07T06:33:41;12.20;;;5.57;;
59263;SDS011;45030;42.720;23.344;2023-05-07T06:36:06;9.10;;;6.10;;
59263;SDS011;45030;42.720;23.344;2023-05-07T06:38:31;8.88;;;5.65;;
59263;SDS011;45030;42.720;23.344;2023-05-07T06:40:57;8.23;;;5.53;;
59263;SDS011;45030;42.720;23.344;2023-05-07T06:43:22;9.02;;;5.70;;
59263;SDS011;45030;42.720;23.344;2023-05-07T06:45:47;7.93;;;5.50;;
59263;SDS011;45030;42.720;23.344;2023-05-07T06:48:13;11.27;;;6.53;;
59263;SDS011;45030;42.720;23.344;2023-05-07T06:50:38;8.73;;;5.75;;
59263;SDS011;45030;42.720;23.344;2023-05-07T06:53:03;8.38;;;5.25;;
59263;SDS011;45030;42.720;23.344;2023-05-07T06:55:29;7.65;;;5.72;;
59263;SDS011;45030;42.720;23.344;2023-05-07T06:57:54;8.38;;;5.53;;
59263;SDS011;45030;42.720;23.344;2023-05-07T07:00:19;9.07;;;5.78;;
59263;SDS011;45030;42.720;23.344;2023-05-07T07:02:45;7.63;;;5.40;;
59263;SDS011;45030;42.720;23.344;2023-05-07T07:05:10;7.82;;;6.10;;
59263;SDS011;45030;42.720;23.344;2023-05-07T07:07:35;8.82;;;6.10;;
59263;SDS011;45030;42.720;23.344;2023-05-07T07:10:01;7.47;;;5.78;;
59263;SDS011;45030;42.720;23.344;2023-05-07T07:12:27;8.88;;;5.35;;
59263;SDS011;45030;42.720;23.344;2023-05-07T07:14:53;8.07;;;5.60;;
59263;SDS011;45030;42.720;23.344;2023-05-07T07:17:19;7.72;;;5.78;;
59263;SDS011;45030;42.720;23.344;2023-05-07T07:19:44;7.85;;;5.10;;
59263;SDS011;45030;42.720;23.344;2023-05-07T07:22:09;6.20;;;4.90;;
59263;SDS011;45030;42.720;23.344;2023-05-07T07:24:35;8.48;;;4.90;;
59263;SDS011;45030;42.720;23.344;2023-05-07T07:27:00;8.85;;;5.75;;
59263;SDS011;45030;42.720;23.344;2023-05-07T07:29:25;7.50;;;4.90;;
59263;SDS011;45030;42.720;23.344;2023-05-07T07:31:52;8.48;;;5.40;;
59263;SDS011;45030;42.720;23.344;2023-05-07T07:34:17;9.30;;;5.07;;
59263;SDS011;45030;42.720;23.344;2023-05-07T07:36:42;6.70;;;5.27;;
59263;SDS011;45030;42.720;23.344;2023-05-07T07:39:07;8.37;;;5.47;;
59263;SDS011;45030;42.720;23.344;2023-05-07T07:41:33;7.97;;;5.57;;
59263;SDS011;45030;42.720;23.344;2023-05-07T07:43:58;7.97;;;5.37;;
59263;SDS011;45030;42.720;23.344;2023-05-07T07:46:23;11.07;;;5.90;;
59263;SDS011;45030;42.720;23.344;2023-05-07T07:48:49;8.35;;;5.38;;
59263;SDS011;45030;42.720;23.344;2023-05-07T07:51:14;7.90;;;5.27;;
59263;SDS011;45030;42.720;23.344;2023-05-07T07:53:39;7.55;;;5.07;;
59263;SDS011;45030;42.720;23.344;2023-05-07T07:56:06;9.50;;;5.32;;
59263;SDS011;45030;42.720;23.344;2023-05-07T07:58:31;7.05;;;5.57;;
59263;SDS011;45030;42.720;23.344;2023-05-07T08:00:56;6.95;;;4.90;;
59263;SDS011;45030;42.720;23.344;2023-05-07T08:03:21;6.33;;;4.90;;
59263;SDS011;45030;42.720;23.344;2023-05-07T08:05:47;10.13;;;5.50;;
59263;SDS011;45030;42.720;23.344;2023-05-07T08:08:14;7.47;;;4.80;;
59263;SDS011;45030;42.720;23.344;2023-05-07T08:10:40;7.25;;;4.95;;
59263;SDS011;45030;42.720;23.344;2023-05-07T08:13:05;6.72;;;5.10;;
59263;SDS011;45030;42.720;23.344;2023-05-07T08:15:30;5.85;;;4.25;;
59263;SDS011;45030;42.720;23.344;2023-05-07T08:17:56;7.35;;;5.00;;
59263;SDS011;45030;42.720;23.344;2023-05-07T08:20:22;7.95;;;5.03;;
59263;SDS011;45030;42.720;23.344;2023-05-07T08:22:47;6.95;;;4.45;;
59263;SDS011;45030;42.720;23.344;2023-05-07T08:25:13;7.60;;;4.67;;
59263;SDS011;45030;42.720;23.344;2023-05-07T08:27:38;5.43;;;3.97;;
59263;SDS011;45030;42.720;23.344;2023-05-07T08:30:03;7.10;;;4.70;;
59263;SDS011;45030;42.720;23.344;2023-05-07T08:32:29;7.03;;;5.00;;
59263;SDS011;45030;42.720;23.344;2023-05-07T08:34:54;5.90;;;3.60;;
59263;SDS011;45030;42.720;23.344;2023-05-07T08:37:19;5.82;;;3.85;;
59263;SDS011;45030;42.720;23.344;2023-05-07T08:39:45;5.13;;;4.07;;
59263;SDS011;45030;42.720;23.344;2023-05-07T08:42:10;5.85;;;4.65;;
59263;SDS011;45030;42.720;23.344;2023-05-07T08:44:36;6.82;;;3.92;;
59263;SDS011;45030;42.720;23.344;2023-05-07T08:47:03;5.55;;;4.88;;
59263;SDS011;45030;42.720;23.344;2023-05-07T08:49:31;7.13;;;3.95;;
59263;SDS011;45030;42.720;23.344;2023-05-07T08:51:56;6.90;;;4.38;;
59263;SDS011;45030;42.720;23.344;2023-05-07T08:54:21;5.30;;;4.38;;
59263;SDS011;45030;42.720;23.344;2023-05-07T08:56:46;5.68;;;4.45;;
59263;SDS011;45030;42.720;23.344;2023-05-07T08:59:12;5.75;;;3.92;;
59263;SDS011;45030;42.720;23.344;2023-05-07T09:01:37;5.43;;;3.75;;
59263;SDS011;45030;42.720;23.344;2023-05-07T09:04:03;5.95;;;3.90;;
59263;SDS011;45030;42.720;23.344;2023-05-07T09:06:29;8.13;;;3.53;;
59263;SDS011;45030;42.720;23.344;2023-05-07T09:08:55;4.15;;;2.83;;
59263;SDS011;45030;42.720;23.344;2023-05-07T09:11:21;5.05;;;2.90;;
59263;SDS011;45030;42.720;23.344;2023-05-07T09:13:47;3.42;;;2.63;;
59263;SDS011;45030;42.720;23.344;2023-05-07T09:16:13;4.85;;;2.70;;
59263;SDS011;45030;42.720;23.344;2023-05-07T09:18:41;5.55;;;2.65;;
59263;SDS011;45030;42.720;23.344;2023-05-07T09:21:09;3.35;;;2.35;;
59263;SDS011;45030;42.720;23.344;2023-05-07T09:23:34;4.15;;;2.60;;
59263;SDS011;45030;42.720;23.344;2023-05-07T09:26:00;4.47;;;3.22;;
59263;SDS011;45030;42.720;23.344;2023-05-07T09:28:25;2.83;;;2.25;;
59263;SDS011;45030;42.720;23.344;2023-05-07T09:30:50;4.70;;;2.45;;
59263;SDS011;45030;42.720;23.344;2023-05-07T09:33:16;4.17;;;2.60;;
59263;SDS011;45030;42.720;23.344;2023-05-07T09:35:42;4.03;;;2.70;;
59263;SDS011;45030;42.720;23.344;2023-05-07T09:38:07;3.33;;;2.30;;
59263;SDS011;45030;42.720;23.344;2023-05-07T09:40:32;9.63;;;3.80;;
59263;SDS011;45030;42.720;23.344;2023-05-07T09:43:08;3.53;;;2.63;;
59263;SDS011;45030;42.720;23.344;2023-05-07T09:45:33;4.03;;;2.97;;
59263;SDS011;45030;42.720;23.344;2023-05-07T09:47:59;4.27;;;2.43;;
59263;SDS011;45030;42.720;23.344;2023-05-07T09:50:29;2.92;;;2.47;;
59263;SDS011;45030;42.720;23.344;2023-05-07T09:52:55;3.53;;;2.15;;
59263;SDS011;45030;42.720;23.344;2023-05-07T09:55:21;3.47;;;2.22;;
59263;SDS011;45030;42.720;23.344;2023-05-07T09:57:48;5.68;;;2.30;;
59263;SDS011;45030;42.720;23.344;2023-05-07T10:00:15;3.83;;;2.13;;
59263;SDS011;45030;42.720;23.344;2023-05-07T10:02:40;2.97;;;1.90;;
59263;SDS011;45030;42.720;23.344;2023-05-07T10:05:12;2.80;;;1.98;;
59263;SDS011;45030;42.720;23.344;2023-05-07T10:07:37;3.05;;;1.75;;
59263;SDS011;45030;42.720;23.344;2023-05-07T10:10:03;4.68;;;1.95;;
59263;SDS011;45030;42.720;23.344;2023-05-07T10:12:28;2.08;;;1.65;;
59263;SDS011;45030;42.720;23.344;2023-05-07T10:14:55;3.20;;;2.20;;
59263;SDS011;45030;42.720;23.344;2023-05-07T10:17:21;2.47;;;1.98;;
59263;SDS011;45030;42.720;23.344;2023-05-07T10:19:47;3.47;;;2.50;;
59263;SDS011;45030;42.720;23.344;2023-05-07T10:22:13;2.78;;;1.90;;
59263;SDS011;45030;42.720;23.344;2023-05-07T10:24:40;2.60;;;1.90;;
59263;SDS011;45030;42.720;23.344;2023-05-07T10:27:08;2.63;;;2.05;;
59263;SDS011;45030;42.720;23.344;2023-05-07T10:34:50;2.38;;;1.45;;
59263;SDS011;45030;42.720;23.344;2023-05-07T10:37:18;2.47;;;1.70;;
59263;SDS011;45030;42.720;23.344;2023-05-07T10:39:43;2.65;;;1.67;;
59263;SDS011;45030;42.720;23.344;2023-05-07T10:42:09;2.05;;;1.50;;
59263;SDS011;45030;42.720;23.344;2023-05-07T10:44:35;3.22;;;1.92;;
59263;SDS011;45030;42.720;23.344;2023-05-07T10:47:12;2.30;;;1.60;;
59263;SDS011;45030;42.720;23.344;2023-05-07T10:54:40;2.50;;;1.52;;
59263;SDS011;45030;42.720;23.344;2023-05-07T10:57:51;2.25;;;1.65;;
59263;SDS011;45030;42.720;23.344;2023-05-07T10:59:51;1.70;;;1.42;;
59263;SDS011;45030;42.720;23.344;2023-05-07T11:02:18;2.70;;;2.10;;
59263;SDS011;45030;42.720;23.344;2023-05-07T11:04:43;3.23;;;1.50;;
59263;SDS011;45030;42.720;23.344;2023-05-07T11:15:08;3.40;;;1.75;;
59263;SDS011;45030;42.720;23.344;2023-05-07T11:17:34;2.40;;;2.00;;
59263;SDS011;45030;42.720;23.344;2023-05-07T11:20:00;3.30;;;2.28;;
59263;SDS011;45030;42.720;23.344;2023-05-07T11:24:57;2.63;;;1.80;;
59263;SDS011;45030;42.720;23.344;2023-05-07T11:27:24;2.70;;;1.88;;
59263;SDS011;45030;42.720;23.344;2023-05-07T11:29:49;3.42;;;2.00;;
59263;SDS011;45030;42.720;23.344;2023-05-07T11:32:15;2.85;;;1.80;;
59263;SDS011;45030;42.720;23.344;2023-05-07T11:34:40;3.67;;;1.30;;
59263;SDS011;45030;42.720;23.344;2023-05-07T11:37:06;1.95;;;1.38;;
59263;SDS011;45030;42.720;23.344;2023-05-07T11:39:32;2.03;;;1.50;;
59263;SDS011;45030;42.720;23.344;2023-05-07T11:42:00;2.17;;;1.52;;
59263;SDS011;45030;42.720;23.344;2023-05-07T11:44:42;2.58;;;1.75;;
59263;SDS011;45030;42.720;23.344;2023-05-07T11:47:08;2.65;;;1.30;;
59263;SDS011;45030;42.720;23.344;2023-05-07T11:49:33;2.50;;;1.70;;
59263;SDS011;45030;42.720;23.344;2023-05-07T11:51:59;2.05;;;1.45;;
59263;SDS011;45030;42.720;23.344;2023-05-07T11:54:24;1.87;;;1.30;;
59263;SDS011;45030;42.720;23.344;2023-05-07T11:56:50;1.95;;;1.50;;
59263;SDS011;45030;42.720;23.344;2023-05-07T11:59:18;1.87;;;1.67;;
59263;SDS011;45030;42.720;23.344;2023-05-07T12:01:46;1.85;;;1.40;;
59263;SDS011;45030;42.720;23.344;2023-05-07T12:04:12;4.30;;;2.67;;
59263;SDS011;45030;42.720;23.344;2023-05-07T12:06:37;2.67;;;1.50;;
59263;SDS011;45030;42.720;23.344;2023-05-07T12:09:03;2.42;;;1.73;;
59263;SDS011;45030;42.720;23.344;2023-05-07T12:11:29;1.75;;;1.23;;
59263;SDS011;45030;42.720;23.344;2023-05-07T12:13:54;3.45;;;1.83;;
59263;SDS011;45030;42.720;23.344;2023-05-07T12:16:20;2.88;;;1.75;;
59263;SDS011;45030;42.720;23.344;2023-05-07T12:18:45;3.25;;;1.73;;
59263;SDS011;45030;42.720;23.344;2023-05-07T12:21:11;2.03;;;1.60;;
59263;SDS011;45030;42.720;23.344;2023-05-07T12:23:36;2.22;;;1.40;;
59263;SDS011;45030;42.720;23.344;2023-05-07T12:26:02;2.38;;;1.40;;
59263;SDS011;45030;42.720;23.344;2023-05-07T12:28:28;2.05;;;1.63;;
59263;SDS011;45030;42.720;23.344;2023-05-07T12:30:53;3.00;;;1.58;;
59263;SDS011;45030;42.720;23.344;2023-05-07T12:33:19;2.28;;;1.63;;
59263;SDS011;45030;42.720;23.344;2023-05-07T12:35:47;2.10;;;1.50;;
59263;SDS011;45030;42.720;23.344;2023-05-07T12:38:13;2.85;;;1.40;;
59263;SDS011;45030;42.720;23.344;2023-05-07T12:40:42;2.40;;;1.60;;
59263;SDS011;45030;42.720;23.344;2023-05-07T12:43:07;2.10;;;1.50;;
59263;SDS011;45030;42.720;23.344;2023-05-07T12:45:37;4.85;;;1.40;;
59263;SDS011;45030;42.720;23.344;2023-05-07T12:48:02;2.28;;;1.60;;
59263;SDS011;45030;42.720;23.344;2023-05-07T12:50:30;2.20;;;1.48;;
59263;SDS011;45030;42.720;23.344;2023-05-07T12:52:56;3.67;;;1.73;;
59263;SDS011;45030;42.720;23.344;2023-05-07T12:55:21;1.92;;;1.30;;
59263;SDS011;45030;42.720;23.344;2023-05-07T12:57:49;3.63;;;1.20;;
59263;SDS011;45030;42.720;23.344;2023-05-07T13:00:15;2.47;;;1.50;;
59263;SDS011;45030;42.720;23.344;2023-05-07T13:02:41;4.25;;;1.35;;
59263;SDS011;45030;42.720;23.344;2023-05-07T13:05:09;1.65;;;1.20;;
59263;SDS011;45030;42.720;23.344;2023-05-07T13:07:34;2.15;;;1.40;;
59263;SDS011;45030;42.720;23.344;2023-05-07T13:10:00;2.33;;;1.15;;
59263;SDS011;45030;42.720;23.344;2023-05-07T13:12:25;1.85;;;1.25;;
59263;SDS011;45030;42.720;23.344;2023-05-07T13:14:50;1.80;;;1.40;;
59263;SDS011;45030;42.720;23.344;2023-05-07T13:17:15;1.97;;;1.40;;
59263;SDS011;45030;42.720;23.344;2023-05-07T13:19:40;2.13;;;1.43;;
59263;SDS011;45030;42.720;23.344;2023-05-07T13:22:06;3.35;;;1.73;;
59263;SDS011;45030;42.720;23.344;2023-05-07T13:24:31;2.40;;;1.50;;
59263;SDS011;45030;42.720;23.344;2023-05-07T13:26:56;2.07;;;1.43;;
59263;SDS011;45030;42.720;23.344;2023-05-07T13:29:21;2.35;;;1.30;;
59263;SDS011;45030;42.720;23.344;2023-05-07T13:31:54;2.13;;;1.40;;
59263;SDS011;45030;42.720;23.344;2023-05-07T13:34:20;2.00;;;1.50;;
59263;SDS011;45030;42.720;23.344;2023-05-07T13:36:45;2.47;;;1.50;;
59263;SDS011;45030;42.720;23.344;2023-05-07T13:39:10;1.90;;;1.40;;
59263;SDS011;45030;42.720;23.344;2023-05-07T13:41:36;2.28;;;1.70;;
59263;SDS011;45030;42.720;23.344;2023-05-07T13:44:01;2.53;;;1.47;;
59263;SDS011;45030;42.720;23.344;2023-05-07T13:46:26;3.13;;;2.00;;
59263;SDS011;45030;42.720;23.344;2023-05-07T13:48:55;2.63;;;1.67;;
59263;SDS011;45030;42.720;23.344;2023-05-07T13:51:20;2.90;;;1.50;;
59263;SDS011;45030;42.720;23.344;2023-05-07T13:53:45;2.67;;;1.52;;
59263;SDS011;45030;42.720;23.344;2023-05-07T13:56:10;2.70;;;1.70;;
59263;SDS011;45030;42.720;23.344;2023-05-07T13:58:35;2.33;;;1.50;;
59263;SDS011;45030;42.720;23.344;2023-05-07T14:01:01;3.10;;;1.65;;
59263;SDS011;45030;42.720;23.344;2023-05-07T14:03:26;2.17;;;1.48;;
59263;SDS011;45030;42.720;23.344;2023-05-07T14:05:51;2.30;;;1.37;;
59263;SDS011;45030;42.720;23.344;2023-05-07T14:08:17;2.03;;;1.20;;
59263;SDS011;45030;42.720;23.344;2023-05-07T14:10:44;2.30;;;1.45;;
59263;SDS011;45030;42.720;23.344;2023-05-07T14:13:11;2.00;;;1.55;;
59263;SDS011;45030;42.720;23.344;2023-05-07T14:15:36;2.00;;;1.30;;
59263;SDS011;45030;42.720;23.344;2023-05-07T14:18:01;2.53;;;1.65;;
59263;SDS011;45030;42.720;23.344;2023-05-07T14:20:27;2.75;;;1.60;;
59263;SDS011;45030;42.720;23.344;2023-05-07T14:22:52;1.77;;;1.30;;
59263;SDS011;45030;42.720;23.344;2023-05-07T14:25:17;3.57;;;1.70;;
59263;SDS011;45030;42.720;23.344;2023-05-07T14:27:42;2.63;;;1.50;;
59263;SDS011;45030;42.720;23.344;2023-05-07T14:30:08;2.30;;;1.60;;
59263;SDS011;45030;42.720;23.344;2023-05-07T14:32:33;2.55;;;1.40;;
59263;SDS011;45030;42.720;23.344;2023-05-07T14:34:58;3.28;;;1.58;;
59263;SDS011;45030;42.720;23.344;2023-05-07T14:37:24;2.15;;;1.50;;
59263;SDS011;45030;42.720;23.344;2023-05-07T14:39:49;4.30;;;1.70;;